Ebenezer, Pennsylvania
Current Conditions -  °F | °C
As of 7:00 PM on Monday 22 Dec 2014 (Local Time) from KMUI Reporting Station
Broken Clouds Broken Clouds  
Wind Chill: 36°   Ceiling: 3300
Heat Index: 36°   Visibility: 9mi
Dew Point: 32°   Wind: 2mph
Humidity: 87%   Direction: 50°NE
Pressure: 30.17"   Gusts: NA
Location:  40.2957°N, 76.4189°W
Report Text: KMUI 230000Z AUTO 05002KT 9SM SCT022 BKN033 BKN042 02/00 A3017 RMK AO2 UPB2305E2306RAB2312E2323B2346DZB2306E2346
Loading
Personal Weather Stations






























Interactive Weather Map New forecast layout! Learn more

10-Day Weather Forecast

Advertisements
Track Severe Weather on mobile